createdAt,value
2023-03-12T00:02:00.331Z,1.98
2023-03-12T00:04:27.573Z,2.10
2023-03-12T00:06:54.166Z,2.10
2023-03-12T00:09:20.770Z,1.73
2023-03-12T00:11:47.413Z,2.08
2023-03-12T00:14:14.142Z,1.77
2023-03-12T00:16:40.844Z,2.17
2023-03-12T00:19:07.561Z,2.00
2023-03-12T00:21:34.080Z,1.70
2023-03-12T00:24:00.662Z,2.05
2023-03-12T00:26:27.434Z,1.90
2023-03-12T00:28:54.036Z,2.20
2023-03-12T00:31:26.442Z,2.22
2023-03-12T00:33:54.471Z,2.05
2023-03-12T00:36:23.211Z,2.13
2023-03-12T00:38:49.889Z,2.15
2023-03-12T00:41:16.508Z,2.20
2023-03-12T00:43:43.161Z,2.60
2023-03-12T00:46:09.988Z,2.20
2023-03-12T00:48:36.540Z,2.65
2023-03-12T00:51:03.229Z,2.28
2023-03-12T00:53:29.829Z,2.70
2023-03-12T00:55:56.469Z,2.35
2023-03-12T00:58:23.208Z,2.35
2023-03-12T01:00:51.612Z,2.47
2023-03-12T01:03:18.259Z,2.45
2023-03-12T01:05:45.295Z,2.20
2023-03-12T01:08:12.322Z,2.30
2023-03-12T01:10:42.923Z,2.40
2023-03-12T01:13:09.622Z,2.03
2023-03-12T01:15:36.396Z,2.70
2023-03-12T01:18:02.970Z,2.30
2023-03-12T01:20:29.587Z,2.22
2023-03-12T01:22:57.503Z,2.40
2023-03-12T01:25:24.234Z,2.17
2023-03-12T01:27:50.903Z,2.10
2023-03-12T01:30:18.968Z,2.53
2023-03-12T01:32:45.572Z,2.15
2023-03-12T01:35:15.293Z,2.22
2023-03-12T01:37:41.846Z,2.30
2023-03-12T01:40:14.153Z,2.00
2023-03-12T01:42:40.716Z,1.95
2023-03-12T01:45:27.650Z,1.90
2023-03-12T01:47:54.646Z,1.98
2023-03-12T01:50:21.311Z,2.00
2023-03-12T01:52:48.971Z,1.70
2023-03-12T01:55:17.486Z,1.88
2023-03-12T01:57:52.579Z,1.88
2023-03-12T02:00:24.904Z,1.90
2023-03-12T02:02:53.902Z,1.87
2023-03-12T02:05:33.369Z,1.98
2023-03-12T02:08:00.168Z,1.67
2023-03-12T02:10:27.281Z,1.92
2023-03-12T02:12:54.331Z,1.88
2023-03-12T02:15:21.585Z,1.67
2023-03-12T02:17:49.110Z,1.67
2023-03-12T02:20:43.152Z,1.60
2023-03-12T02:23:18.003Z,1.63
2023-03-12T02:25:47.798Z,1.60
2023-03-12T02:28:16.207Z,2.10
2023-03-12T02:30:46.098Z,2.00
2023-03-12T02:33:13.220Z,1.70
2023-03-12T02:35:39.952Z,1.77
2023-03-12T02:38:31.949Z,2.00
2023-03-12T02:41:20.161Z,1.50
2023-03-12T02:43:57.026Z,1.67
2023-03-12T02:46:24.064Z,1.58
2023-03-12T02:48:52.483Z,1.60
2023-03-12T02:51:19.198Z,1.95
2023-03-12T02:53:45.745Z,1.67
2023-03-12T02:56:12.298Z,1.67
2023-03-12T02:58:38.844Z,1.70
2023-03-12T03:01:08.401Z,1.63
2023-03-12T03:03:34.996Z,1.60
2023-03-12T03:06:01.530Z,1.63
2023-03-12T03:08:28.325Z,1.80
2023-03-12T03:10:54.984Z,2.00
2023-03-12T03:13:21.525Z,1.42
2023-03-12T03:15:48.247Z,1.70
2023-03-12T03:18:14.936Z,1.73
2023-03-12T03:20:44.249Z,1.70
2023-03-12T03:23:11.426Z,1.80
2023-03-12T03:25:38.047Z,1.75
2023-03-12T03:28:04.833Z,1.52
2023-03-12T03:30:32.817Z,1.53
2023-03-12T03:33:01.068Z,1.92
2023-03-12T03:35:27.846Z,1.92
2023-03-12T03:37:54.386Z,1.40
2023-03-12T03:40:21.131Z,1.80
2023-03-12T03:42:48.137Z,1.80
2023-03-12T03:45:14.626Z,1.58
2023-03-12T03:47:41.249Z,1.70
2023-03-12T03:50:08.310Z,1.60
2023-03-12T03:52:34.919Z,1.67
2023-03-12T03:55:01.493Z,2.07
2023-03-12T03:57:28.795Z,1.90
2023-03-12T03:59:55.868Z,1.80
2023-03-12T04:02:22.589Z,1.50
2023-03-12T04:04:49.154Z,1.90
2023-03-12T04:07:15.712Z,2.08
2023-03-12T04:09:45.159Z,1.90
2023-03-12T04:12:17.537Z,1.60
2023-03-12T04:14:44.075Z,1.60
2023-03-12T04:17:10.711Z,2.00
2023-03-12T04:19:38.742Z,1.70
2023-03-12T04:22:07.650Z,2.30
2023-03-12T04:24:36.221Z,1.90
2023-03-12T04:27:02.916Z,2.00
2023-03-12T04:29:29.639Z,2.65
2023-03-12T04:31:56.260Z,2.60
2023-03-12T04:34:22.968Z,2.45
2023-03-12T04:36:49.847Z,2.83
2023-03-12T04:39:22.401Z,3.38
2023-03-12T04:41:48.953Z,3.85
2023-03-12T04:44:15.806Z,3.80
2023-03-12T04:46:43.207Z,3.50
2023-03-12T04:49:09.798Z,3.35
2023-03-12T04:51:37.722Z,5.28
2023-03-12T04:54:04.558Z,8.43
2023-03-12T04:56:31.184Z,7.80
2023-03-12T04:58:57.720Z,5.97
2023-03-12T05:01:28.911Z,6.68
2023-03-12T05:03:55.466Z,5.13
2023-03-12T05:06:23.905Z,6.65
2023-03-12T05:08:51.018Z,5.90
2023-03-12T05:11:18.684Z,4.93
2023-03-12T05:13:45.984Z,5.20
2023-03-12T05:16:14.016Z,3.90
2023-03-12T05:18:41.658Z,3.35
2023-03-12T05:21:12.537Z,3.37
2023-03-12T05:23:39.773Z,3.90
2023-03-12T05:26:06.583Z,4.10
2023-03-12T05:28:36.310Z,3.90
2023-03-12T05:31:09.885Z,3.53
2023-03-12T05:33:36.486Z,3.00
2023-03-12T05:36:03.275Z,2.85
2023-03-12T05:38:30.081Z,2.80
2023-03-12T05:41:00.747Z,2.53
2023-03-12T05:43:28.262Z,3.00
2023-03-12T05:45:59.877Z,3.20
2023-03-12T05:48:29.276Z,3.10
2023-03-12T05:50:56.654Z,3.78
2023-03-12T05:53:25.913Z,4.28
2023-03-12T05:56:03.008Z,3.85
2023-03-12T05:58:29.580Z,7.53
2023-03-12T06:00:56.146Z,7.22
2023-03-12T06:03:22.863Z,15.02
2023-03-12T06:05:50.356Z,13.02
2023-03-12T06:08:16.870Z,7.72
2023-03-12T06:10:43.405Z,5.13
2023-03-12T06:13:09.997Z,2.80
2023-03-12T06:15:36.776Z,2.90
2023-03-12T06:18:03.449Z,2.80
2023-03-12T06:20:30.236Z,2.78
2023-03-12T06:22:57.134Z,3.05
2023-03-12T06:25:23.915Z,2.03
2023-03-12T06:27:50.534Z,2.10
2023-03-12T06:30:17.411Z,2.50
2023-03-12T06:32:45.146Z,2.00
2023-03-12T06:35:11.844Z,2.40
2023-03-12T06:37:39.689Z,2.17
2023-03-12T06:40:09.087Z,1.70
2023-03-12T06:42:36.013Z,2.08
2023-03-12T06:45:04.824Z,2.30
2023-03-12T06:47:31.846Z,1.90
2023-03-12T06:49:58.444Z,1.88
2023-03-12T06:52:28.345Z,2.20
2023-03-12T06:54:55.052Z,2.20
2023-03-12T06:57:21.585Z,1.88
2023-03-12T06:59:50.523Z,1.90
2023-03-12T07:02:17.378Z,2.35
2023-03-12T07:04:43.961Z,2.00
2023-03-12T07:07:10.683Z,2.17
2023-03-12T07:09:37.505Z,2.00
2023-03-12T07:12:04.171Z,1.75
2023-03-12T07:14:30.866Z,2.20
2023-03-12T07:16:57.633Z,2.17
2023-03-12T07:19:24.236Z,2.10
2023-03-12T07:21:50.744Z,2.28
2023-03-12T07:24:17.343Z,2.47
2023-03-12T07:26:43.956Z,2.17
2023-03-12T07:29:10.648Z,6.93
2023-03-12T07:31:39.678Z,2.85
2023-03-12T07:34:06.655Z,7.55
2023-03-12T07:36:36.251Z,2.22
2023-03-12T07:39:02.973Z,2.00
2023-03-12T07:41:29.584Z,1.80
2023-03-12T07:43:56.167Z,1.90
2023-03-12T07:46:22.746Z,2.03
2023-03-12T07:48:49.389Z,1.80
2023-03-12T07:51:16.010Z,2.10
2023-03-12T07:53:42.554Z,2.00
2023-03-12T07:56:09.212Z,1.80
2023-03-12T07:58:35.966Z,1.90
2023-03-12T08:01:03.039Z,2.30
2023-03-12T08:03:29.789Z,2.03
2023-03-12T08:06:01.546Z,1.90
2023-03-12T08:08:33.242Z,2.20
2023-03-12T08:11:00.530Z,2.30
2023-03-12T08:13:27.697Z,2.13
2023-03-12T08:15:54.950Z,2.40
2023-03-12T08:18:23.023Z,2.65
2023-03-12T08:20:54.236Z,4.00
2023-03-12T08:23:22.217Z,2.47
2023-03-12T08:25:50.723Z,1.95
2023-03-12T08:28:18.065Z,2.10
2023-03-12T08:30:52.803Z,2.20
2023-03-12T08:33:20.302Z,2.08
2023-03-12T08:35:48.238Z,2.15
2023-03-12T08:38:15.089Z,2.90
2023-03-12T08:40:41.748Z,2.23
2023-03-12T08:43:08.463Z,2.45
2023-03-12T08:45:35.268Z,2.17
2023-03-12T08:48:06.182Z,2.17
2023-03-12T08:50:33.020Z,2.20
2023-03-12T08:53:02.053Z,2.10
2023-03-12T08:55:28.997Z,2.30
2023-03-12T08:57:56.241Z,1.85
2023-03-12T09:00:23.260Z,2.40
2023-03-12T09:02:49.905Z,2.10
2023-03-12T09:05:16.644Z,1.93
2023-03-12T09:07:43.493Z,2.30
2023-03-12T09:10:10.548Z,2.08
2023-03-12T09:12:37.138Z,2.50
2023-03-12T09:15:05.094Z,2.13
2023-03-12T09:17:32.722Z,2.37
2023-03-12T09:19:59.475Z,2.35
2023-03-12T09:22:26.297Z,2.60
2023-03-12T09:24:52.833Z,2.70
2023-03-12T09:27:19.441Z,2.15
2023-03-12T09:29:59.641Z,2.27
2023-03-12T09:32:30.692Z,2.10
2023-03-12T09:35:02.665Z,2.10
2023-03-12T09:37:29.244Z,2.00
2023-03-12T09:40:02.887Z,2.03
2023-03-12T09:42:48.774Z,2.97
2023-03-12T09:45:26.467Z,2.00
2023-03-12T09:48:00.519Z,2.08
2023-03-12T09:50:33.011Z,1.73
2023-03-12T09:53:04.639Z,2.22
2023-03-12T09:55:43.205Z,1.93
2023-03-12T09:58:29.344Z,1.90
2023-03-12T10:01:18.894Z,2.00
2023-03-12T10:04:25.786Z,2.35
2023-03-12T10:06:56.171Z,2.00
2023-03-12T10:09:39.942Z,2.10
2023-03-12T10:12:22.034Z,2.90
2023-03-12T10:15:07.298Z,2.00
2023-03-12T10:17:58.392Z,2.40
2023-03-12T10:21:06.265Z,2.10
2023-03-12T10:23:53.434Z,2.23
2023-03-12T10:26:41.023Z,1.95
2023-03-12T10:29:17.277Z,2.05
2023-03-12T10:32:06.939Z,2.05
2023-03-12T10:34:44.225Z,2.10
2023-03-12T10:37:25.183Z,2.23
2023-03-12T10:39:53.639Z,2.28
2023-03-12T10:42:25.321Z,2.40
2023-03-12T10:45:13.590Z,2.10
2023-03-12T10:47:42.903Z,2.17
2023-03-12T10:50:21.837Z,2.20
2023-03-12T10:52:51.674Z,2.30
2023-03-12T10:55:29.992Z,2.05
2023-03-12T10:57:57.393Z,2.00
2023-03-12T11:00:29.281Z,1.92
2023-03-12T11:03:00.437Z,2.40
2023-03-12T11:05:31.213Z,2.40
2023-03-12T11:07:59.435Z,2.40
2023-03-12T11:10:45.581Z,2.47
2023-03-12T11:13:27.405Z,2.30
2023-03-12T11:15:56.339Z,2.10
2023-03-12T11:18:40.955Z,2.13
2023-03-12T11:21:10.740Z,2.15
2023-03-12T11:23:42.739Z,1.92
2023-03-12T11:26:21.350Z,2.08
2023-03-12T11:28:51.194Z,2.17
2023-03-12T11:31:33.918Z,2.30
2023-03-12T11:34:07.702Z,1.90
2023-03-12T11:36:38.383Z,2.17
2023-03-12T11:39:32.653Z,2.00
2023-03-12T11:42:08.158Z,2.00
2023-03-12T11:44:39.819Z,2.10
2023-03-12T11:47:26.760Z,2.00
2023-03-12T11:50:26.855Z,1.95
2023-03-12T11:53:12.011Z,2.40
2023-03-12T11:56:02.954Z,2.30
2023-03-12T11:59:14.673Z,2.38
2023-03-12T12:02:25.321Z,2.30
2023-03-12T12:05:19.133Z,2.20
2023-03-12T12:08:08.443Z,2.17
2023-03-12T12:10:43.585Z,2.30
2023-03-12T12:13:52.808Z,2.40
2023-03-12T12:16:33.017Z,2.20
2023-03-12T12:19:30.992Z,2.40
2023-03-12T12:22:27.412Z,2.28
2023-03-12T12:24:56.787Z,2.03
2023-03-12T12:28:09.254Z,2.15
2023-03-12T12:31:00.228Z,2.05
2023-03-12T12:33:45.315Z,2.10
2023-03-12T12:36:14.792Z,2.40
2023-03-12T12:38:49.738Z,2.30
2023-03-12T12:41:34.724Z,2.22
2023-03-12T12:44:16.107Z,2.15
2023-03-12T12:46:48.300Z,2.38
2023-03-12T12:49:47.386Z,2.00
2023-03-12T12:52:19.974Z,2.67
2023-03-12T12:55:04.652Z,3.40
2023-03-12T12:57:57.715Z,2.75
2023-03-12T13:00:59.331Z,2.60
2023-03-12T13:03:30.714Z,2.33
2023-03-12T13:06:04.797Z,2.10
2023-03-12T13:08:36.387Z,2.00
2023-03-12T13:11:20.668Z,2.40
2023-03-12T13:13:51.406Z,2.50
2023-03-12T13:16:21.112Z,2.28
2023-03-12T13:19:07.843Z,2.33
2023-03-12T13:21:52.008Z,2.40
2023-03-12T13:24:49.362Z,2.60
2023-03-12T13:27:15.842Z,2.05
2023-03-12T13:29:42.670Z,2.17
2023-03-12T13:32:30.990Z,2.50
2023-03-12T13:34:57.995Z,2.20
2023-03-12T13:37:51.279Z,2.10
2023-03-12T13:40:29.645Z,2.53
2023-03-12T13:43:08.043Z,2.50
2023-03-12T13:46:00.754Z,2.30
2023-03-12T13:48:28.138Z,2.15
2023-03-12T13:51:05.723Z,2.10
2023-03-12T13:53:40.376Z,2.33
2023-03-12T13:56:16.437Z,2.22
2023-03-12T13:58:56.638Z,2.27
2023-03-12T14:01:29.678Z,2.45
2023-03-12T14:04:01.581Z,2.08
2023-03-12T14:06:36.094Z,2.60
2023-03-12T14:09:29.681Z,2.20
2023-03-12T14:12:17.812Z,2.30
2023-03-12T14:15:03.417Z,2.33
2023-03-12T14:17:34.407Z,2.38
2023-03-12T14:20:10.540Z,2.35
2023-03-12T14:22:39.523Z,2.33
2023-03-12T14:25:29.006Z,2.27
2023-03-12T14:27:55.983Z,2.00
2023-03-12T14:30:39.530Z,2.20
2023-03-12T14:33:09.950Z,2.22
2023-03-12T14:35:45.577Z,2.65
2023-03-12T14:38:21.865Z,2.40
2023-03-12T14:40:55.164Z,2.67
2023-03-12T14:43:32.894Z,2.83
2023-03-12T14:46:05.596Z,3.08
2023-03-12T14:48:34.630Z,2.75
2023-03-12T14:51:04.424Z,2.27
2023-03-12T14:53:32.465Z,2.30
2023-03-12T14:56:28.233Z,2.55
2023-03-12T14:58:55.507Z,2.58
2023-03-12T15:01:29.876Z,2.50
2023-03-12T15:04:14.563Z,2.73
2023-03-12T15:06:50.038Z,2.50
2023-03-12T15:09:20.492Z,2.40
2023-03-12T15:11:59.516Z,2.20
2023-03-12T15:14:28.813Z,2.70
2023-03-12T15:16:57.587Z,2.63
2023-03-12T15:19:34.965Z,2.50
2023-03-12T15:22:03.266Z,2.58
2023-03-12T15:24:38.646Z,2.25
2023-03-12T15:27:26.929Z,3.00
2023-03-12T15:29:54.404Z,3.20
2023-03-12T15:32:23.748Z,3.50
2023-03-12T15:34:52.055Z,4.60
2023-03-12T15:37:26.563Z,3.80
2023-03-12T15:39:54.357Z,2.70
2023-03-12T15:42:26.183Z,3.33
2023-03-12T15:45:01.566Z,3.53
2023-03-12T15:47:30.661Z,4.00
2023-03-12T15:50:01.801Z,3.70
2023-03-12T15:52:35.629Z,3.40
2023-03-12T15:55:17.302Z,3.67
2023-03-12T15:57:49.074Z,3.30
2023-03-12T16:00:17.789Z,3.15
2023-03-12T16:03:01.463Z,3.70
2023-03-12T16:05:31.902Z,4.60
2023-03-12T16:08:01.732Z,5.00
2023-03-12T16:10:29.033Z,3.90
2023-03-12T16:13:01.229Z,4.03
2023-03-12T16:15:38.067Z,2.83
2023-03-12T16:18:05.132Z,2.42
2023-03-12T16:20:31.675Z,2.83
2023-03-12T16:22:58.254Z,2.70
2023-03-12T16:25:25.517Z,2.50
2023-03-12T16:27:56.268Z,2.67
2023-03-12T16:30:27.265Z,2.78
2023-03-12T16:32:54.045Z,2.33
2023-03-12T16:35:23.757Z,2.60
2023-03-12T16:37:50.474Z,2.50
2023-03-12T16:40:30.867Z,2.67
2023-03-12T16:43:03.078Z,2.05
2023-03-12T16:45:31.389Z,2.60
2023-03-12T16:48:00.926Z,2.70
2023-03-12T16:50:31.157Z,2.70
2023-03-12T16:52:58.398Z,2.53
2023-03-12T16:55:31.556Z,3.00
2023-03-12T16:58:01.150Z,3.53
2023-03-12T17:00:30.317Z,3.20
2023-03-12T17:02:57.727Z,3.72
2023-03-12T17:05:26.467Z,3.72
2023-03-12T17:07:53.670Z,3.03
2023-03-12T17:10:20.651Z,3.88
2023-03-12T17:12:48.486Z,3.55
2023-03-12T17:15:18.432Z,3.58
2023-03-12T17:17:45.057Z,3.90
2023-03-12T17:20:14.588Z,4.65
2023-03-12T17:22:41.455Z,4.75
2023-03-12T17:25:13.040Z,4.03
2023-03-12T17:27:39.733Z,4.47
2023-03-12T17:30:06.953Z,4.28
2023-03-12T17:32:33.629Z,4.40
2023-03-12T17:35:00.200Z,5.18
2023-03-12T17:37:26.818Z,4.60
2023-03-12T17:39:53.374Z,4.90
2023-03-12T17:42:19.890Z,4.05
2023-03-12T17:44:49.327Z,3.80
2023-03-12T17:47:15.948Z,3.35
2023-03-12T17:49:42.678Z,3.65
2023-03-12T17:52:09.224Z,4.22
2023-03-12T17:54:38.100Z,4.47
2023-03-12T17:57:04.765Z,4.95
2023-03-12T17:59:31.381Z,4.10
2023-03-12T18:01:58.032Z,4.35
2023-03-12T18:04:24.679Z,4.30
2023-03-12T18:06:51.312Z,4.97
2023-03-12T18:09:17.888Z,4.72
2023-03-12T18:11:44.591Z,4.85
2023-03-12T18:14:13.925Z,4.78
2023-03-12T18:16:43.337Z,3.78
2023-03-12T18:19:09.901Z,4.45
2023-03-12T18:21:36.445Z,5.20
2023-03-12T18:24:13.347Z,5.80
2023-03-12T18:26:40.973Z,5.28
2023-03-12T18:29:07.474Z,5.57
2023-03-12T18:31:34.341Z,6.07
2023-03-12T18:34:00.907Z,7.32
2023-03-12T18:36:27.598Z,7.35
2023-03-12T18:38:54.269Z,7.47
2023-03-12T18:41:20.956Z,6.47
2023-03-12T18:43:47.531Z,6.18
2023-03-12T18:46:14.184Z,7.05
2023-03-12T18:48:43.580Z,6.72
2023-03-12T18:51:10.903Z,6.25
2023-03-12T18:53:37.711Z,6.18
2023-03-12T18:56:04.685Z,8.43
2023-03-12T18:58:31.196Z,8.23
2023-03-12T19:00:58.803Z,7.55
2023-03-12T19:03:26.484Z,7.25
2023-03-12T19:06:11.176Z,7.22
2023-03-12T19:08:38.228Z,6.07
2023-03-12T19:11:10.168Z,6.10
2023-03-12T19:13:36.815Z,6.05
2023-03-12T19:16:06.530Z,6.53
2023-03-12T19:18:33.410Z,6.82
2023-03-12T19:21:00.540Z,7.72
2023-03-12T19:23:27.057Z,7.35
2023-03-12T19:25:53.826Z,6.22
2023-03-12T19:28:20.451Z,6.20
2023-03-12T19:30:47.069Z,5.38
2023-03-12T19:33:13.675Z,5.55
2023-03-12T19:35:42.093Z,5.97
2023-03-12T19:38:09.311Z,5.60
2023-03-12T19:40:35.992Z,5.95
2023-03-12T19:43:03.197Z,5.13
2023-03-12T19:45:29.868Z,4.85
2023-03-12T19:47:59.344Z,4.95
2023-03-12T19:50:26.057Z,4.60
2023-03-12T19:52:52.569Z,4.38
2023-03-12T19:55:19.156Z,4.20
2023-03-12T19:57:45.767Z,4.05
2023-03-12T20:00:12.834Z,4.78
2023-03-12T20:02:40.193Z,4.22
2023-03-12T20:05:07.605Z,4.13
2023-03-12T20:07:34.257Z,4.10
2023-03-12T20:10:02.973Z,4.82
2023-03-12T20:12:29.717Z,4.07
2023-03-12T20:14:56.322Z,4.15
2023-03-12T20:17:23.026Z,3.95
2023-03-12T20:19:49.738Z,3.97
2023-03-12T20:22:18.309Z,4.30
2023-03-12T20:24:44.888Z,3.90
2023-03-12T20:27:11.695Z,4.20
2023-03-12T20:29:38.371Z,3.67
2023-03-12T20:32:05.162Z,3.83
2023-03-12T20:34:32.041Z,3.78
2023-03-12T20:36:58.566Z,4.30
2023-03-12T20:39:25.161Z,3.88
2023-03-12T20:41:51.830Z,4.22
2023-03-12T20:44:18.402Z,3.88
2023-03-12T20:46:48.208Z,4.60
2023-03-12T20:49:15.178Z,3.90
2023-03-12T20:51:41.906Z,3.65
2023-03-12T20:54:09.433Z,3.72
2023-03-12T20:56:36.494Z,3.83
2023-03-12T20:59:03.089Z,3.60
2023-03-12T21:01:29.743Z,3.60
2023-03-12T21:03:59.485Z,3.67
2023-03-12T21:06:26.602Z,4.13
2023-03-12T21:08:56.058Z,3.40
2023-03-12T21:11:22.740Z,3.67
2023-03-12T21:13:49.296Z,3.83
2023-03-12T21:16:18.816Z,3.85
2023-03-12T21:18:45.458Z,3.65
2023-03-12T21:21:12.223Z,3.60
2023-03-12T21:23:38.806Z,4.10
2023-03-12T21:26:09.505Z,3.83
2023-03-12T21:28:36.703Z,4.10
2023-03-12T21:31:09.638Z,4.30
2023-03-12T21:33:36.853Z,3.92
2023-03-12T21:36:08.726Z,4.05
2023-03-12T21:38:36.715Z,3.83
2023-03-12T21:41:15.147Z,4.18
2023-03-12T21:43:42.990Z,4.22
2023-03-12T21:46:22.352Z,4.40
2023-03-12T21:48:51.916Z,3.38
2023-03-12T21:51:18.702Z,4.47
2023-03-12T21:53:46.409Z,4.00
2023-03-12T21:56:13.031Z,4.40
2023-03-12T21:58:39.760Z,4.38
2023-03-12T22:01:11.986Z,4.53
2023-03-12T22:03:40.159Z,4.75
2023-03-12T22:06:07.498Z,4.82
2023-03-12T22:08:34.584Z,5.45
2023-03-12T22:11:01.430Z,5.18
2023-03-12T22:13:28.064Z,4.68
2023-03-12T22:15:57.169Z,5.70
2023-03-12T22:18:24.110Z,5.50
2023-03-12T22:20:54.772Z,5.38
2023-03-12T22:23:22.619Z,5.90
2023-03-12T22:25:49.483Z,5.25
2023-03-12T22:28:16.813Z,5.22
2023-03-12T22:30:43.938Z,5.40
2023-03-12T22:33:11.794Z,5.68
2023-03-12T22:35:48.626Z,5.53
2023-03-12T22:38:15.433Z,5.90
2023-03-12T22:40:42.206Z,5.37
2023-03-12T22:43:09.176Z,6.40
2023-03-12T22:45:35.940Z,6.03
2023-03-12T22:48:02.858Z,5.93
2023-03-12T22:50:29.656Z,6.15
2023-03-12T22:52:56.292Z,6.53
2023-03-12T22:55:23.098Z,6.10
2023-03-12T22:57:50.125Z,7.00
2023-03-12T23:00:19.962Z,6.57
2023-03-12T23:02:46.574Z,7.00
2023-03-12T23:05:13.180Z,6.95
2023-03-12T23:07:39.885Z,6.57
2023-03-12T23:10:06.991Z,7.78
2023-03-12T23:12:33.623Z,6.60
2023-03-12T23:15:00.307Z,6.72
2023-03-12T23:17:26.878Z,6.88
2023-03-12T23:19:53.673Z,7.53
2023-03-12T23:22:20.433Z,7.55
2023-03-12T23:24:47.188Z,8.05
2023-03-12T23:27:13.781Z,7.50
2023-03-12T23:29:40.345Z,7.80
2023-03-12T23:32:07.133Z,7.13
2023-03-12T23:34:34.861Z,7.50
2023-03-12T23:37:01.815Z,7.63
2023-03-12T23:39:30.283Z,7.15
2023-03-12T23:41:59.620Z,7.30
2023-03-12T23:44:26.261Z,6.28
2023-03-12T23:46:52.789Z,6.90
2023-03-12T23:49:19.269Z,7.45
2023-03-12T23:51:45.855Z,7.80
2023-03-12T23:54:12.457Z,7.70
2023-03-12T23:56:40.346Z,7.72
2023-03-12T23:59:09.344Z,7.18
